Time;durP1;ratioP1;P1;durP2;ratioP2;P2;SDS_P1;SDS_P2;PMS_P1;PMS_P2;Temp;Humidity;BMP_temperature;BMP_pressure;BME280_temperature;BME280_humidity;BME280_pressure;Samples;Min_cycle;Max_cycle;Signal;HPM_P1;HPM_P2
2022/04/12 00:01:40;;;;;;;8.23;3.75;;;15.70;68.30;;;;;;5052272;28;20419;-85
2022/04/12 00:04:06;;;;;;;8.65;3.17;;;15.70;68.30;;;;;;5038832;28;20577;-85
2022/04/12 00:06:32;;;;;;;7.22;4.30;;;15.70;68.40;;;;;;5038836;28;20030;-86
2022/04/12 00:08:58;;;;;;;6.00;2.50;;;15.60;68.20;;;;;;5038838;28;20476;-85
2022/04/12 00:11:24;;;;;;;7.55;2.90;;;15.50;68.20;;;;;;5038730;28;20029;-85
2022/04/12 00:13:50;;;;;;;8.25;3.42;;;15.50;68.20;;;;;;5037577;28;20101;-85
2022/04/12 00:16:16;;;;;;;7.82;3.42;;;15.60;68.10;;;;;;5038797;28;20029;-85
2022/04/12 00:21:26;;;;;;;4.82;3.17;;;15.60;67.70;;;;;;5039067;28;20060;-86
2022/04/12 00:23:51;;;;;;;7.47;3.95;;;15.60;67.80;;;;;;5038432;28;20018;-85
2022/04/12 00:26:17;;;;;;;6.38;3.00;;;15.60;67.60;;;;;;5038579;28;20029;-86
2022/04/12 00:28:43;;;;;;;6.80;2.35;;;15.60;67.50;;;;;;5038456;28;20032;-86
2022/04/12 00:31:09;;;;;;;7.80;3.03;;;15.60;67.30;;;;;;5038358;28;20480;-85
2022/04/12 00:33:35;;;;;;;7.10;2.92;;;15.60;67.40;;;;;;5038349;28;20447;-85
2022/04/12 00:36:04;;;;;;;5.43;2.70;;;15.60;67.30;;;;;;5038326;28;20087;-86
2022/04/12 00:38:33;;;;;;;4.53;3.00;;;15.50;67.50;;;;;;5038435;28;20100;-85
2022/04/12 00:40:59;;;;;;;6.10;3.45;;;15.50;67.60;;;;;;5036982;28;20087;-85
2022/04/12 00:43:27;;;;;;;5.57;2.70;;;15.50;67.60;;;;;;5038010;28;20373;-85
2022/04/12 00:45:53;;;;;;;8.93;3.33;;;15.50;67.50;;;;;;5036932;28;20033;-85
2022/04/12 00:48:19;;;;;;;5.47;2.92;;;15.50;67.50;;;;;;5050408;28;20048;-85
2022/04/12 00:50:46;;;;;;;8.35;3.10;;;15.50;67.50;;;;;;5058093;28;20056;-84
2022/04/12 00:53:12;;;;;;;6.00;3.20;;;15.50;67.50;;;;;;5058237;28;20071;-85
2022/04/12 00:55:38;;;;;;;3.90;2.40;;;15.50;67.50;;;;;;5057787;28;20033;-85
2022/04/12 00:58:07;;;;;;;5.18;2.15;;;15.50;67.50;;;;;;5042593;28;20028;-85
2022/04/12 01:00:36;;;;;;;2.97;2.20;;;15.50;67.70;;;;;;5052713;28;20075;-85
2022/04/12 01:03:03;;;;;;;6.50;2.22;;;15.50;67.50;;;;;;5038417;28;20025;-85
2022/04/12 01:05:28;;;;;;;4.82;2.72;;;15.60;67.50;;;;;;5037887;28;20029;-85
2022/04/12 01:07:55;;;;;;;6.30;2.88;;;15.70;67.30;;;;;;5037196;28;20097;-85
2022/04/12 01:10:22;;;;;;;5.32;2.00;;;15.70;67.10;;;;;;5037793;28;20452;-85
2022/04/12 01:12:52;;;;;;;6.15;2.20;;;15.70;67.10;;;;;;5036369;28;20029;-86
2022/04/12 01:15:21;;;;;;;3.05;1.92;;;15.50;67.90;;;;;;5037523;28;20036;-85
2022/04/12 01:17:47;;;;;;;3.67;2.20;;;15.60;67.90;;;;;;5037372;28;20025;-85
2022/04/12 01:20:16;;;;;;;5.15;2.13;;;15.60;68.20;;;;;;5037504;28;20100;-85
2022/04/12 01:23:07;;;;;;;4.60;2.28;;;15.70;68.70;;;;;;5037571;28;20017;-86
2022/04/12 01:25:34;;;;;;;4.28;2.97;;;15.60;69.80;;;;;;5041274;28;20175;-86
2022/04/12 01:27:59;;;;;;;5.28;2.22;;;15.80;70.10;;;;;;5037506;28;20117;-85
2022/04/12 01:30:25;;;;;;;5.75;2.35;;;15.80;70.30;;;;;;5037448;28;20037;-85
2022/04/12 01:32:51;;;;;;;6.78;1.95;;;15.70;71.50;;;;;;5035803;28;20057;-85
2022/04/12 01:35:17;;;;;;;5.13;3.05;;;15.60;71.20;;;;;;5040279;28;20391;-85
2022/04/12 01:37:43;;;;;;;4.90;2.25;;;15.30;72.60;;;;;;5057395;28;20060;-85
2022/04/12 01:40:09;;;;;;;4.75;2.28;;;15.20;72.80;;;;;;5049485;28;20063;-86
2022/04/12 01:42:39;;;;;;;2.67;2.03;;;15.20;72.70;;;;;;5037222;28;20028;-86
2022/04/12 01:45:06;;;;;;;4.33;2.40;;;15.10;73.30;;;;;;5035849;28;20056;-85
2022/04/12 01:47:31;;;;;;;6.32;2.67;;;15.10;73.20;;;;;;5043898;28;20109;-86
2022/04/12 01:49:57;;;;;;;7.57;2.40;;;15.10;73.00;;;;;;5055490;28;20060;-85
2022/04/12 01:52:23;;;;;;;2.53;2.13;;;15.10;72.90;;;;;;5056922;28;20095;-85
2022/04/12 01:54:49;;;;;;;6.10;2.83;;;15.00;73.40;;;;;;5043607;28;20543;-85
2022/04/12 01:57:15;;;;;;;8.55;2.63;;;15.00;73.70;;;;;;5036984;28;20033;-84
2022/04/12 01:59:42;;;;;;;7.78;2.53;;;14.90;73.80;;;;;;5044356;28;20483;-85
2022/04/12 02:02:09;;;;;;;3.85;2.13;;;14.80;74.10;;;;;;5055536;28;20052;-85
2022/04/12 02:04:34;;;;;;;4.43;2.20;;;14.80;74.30;;;;;;5056770;28;20021;-85
2022/04/12 02:07:00;;;;;;;4.78;2.10;;;14.80;74.50;;;;;;5043015;28;20037;-85
2022/04/12 02:09:26;;;;;;;9.60;2.55;;;14.80;74.40;;;;;;5036375;28;20037;-85
2022/04/12 02:11:53;;;;;;;3.00;1.80;;;14.70;74.50;;;;;;5036502;28;20025;-85
2022/04/12 02:14:19;;;;;;;4.93;2.30;;;14.80;74.30;;;;;;5042626;28;20032;-85
2022/04/12 02:16:44;;;;;;;5.00;2.58;;;14.70;74.40;;;;;;5056404;28;20021;-85
2022/04/12 02:19:10;;;;;;;9.35;2.30;;;14.80;74.30;;;;;;5035631;28;20025;-85
2022/04/12 02:21:36;;;;;;;5.72;1.88;;;14.80;73.90;;;;;;5036546;28;20021;-84
2022/04/12 02:24:02;;;;;;;6.05;2.63;;;14.80;73.70;;;;;;5036216;28;20035;-85
2022/04/12 02:26:27;;;;;;;3.45;2.13;;;14.80;73.90;;;;;;5044352;28;20063;-85
2022/04/12 02:28:53;;;;;;;4.97;2.28;;;14.80;74.00;;;;;;5054572;28;20125;-85
2022/04/12 02:31:19;;;;;;;3.63;2.05;;;14.80;73.50;;;;;;5056390;28;20021;-85
2022/04/12 02:33:46;;;;;;;6.13;2.28;;;14.80;73.60;;;;;;5056033;28;20049;-85
2022/04/12 02:36:12;;;;;;;3.05;1.40;;;14.80;73.70;;;;;;5045751;28;20042;-85
2022/04/12 02:38:37;;;;;;;3.00;1.88;;;14.80;73.40;;;;;;5036199;28;20070;-86
2022/04/12 02:41:03;;;;;;;4.38;1.88;;;14.70;73.80;;;;;;5035724;28;20440;-85
2022/04/12 02:43:29;;;;;;;5.40;2.33;;;14.60;74.10;;;;;;5051314;28;20403;-86
2022/04/12 02:45:55;;;;;;;4.90;3.00;;;14.40;74.40;;;;;;5035952;28;20033;-86
2022/04/12 02:48:20;;;;;;;3.88;1.85;;;14.50;74.30;;;;;;5049619;28;20021;-85
2022/04/12 02:50:47;;;;;;;4.78;2.03;;;14.40;74.30;;;;;;5038120;28;20123;-85
2022/04/12 02:53:13;;;;;;;4.32;1.90;;;14.40;74.30;;;;;;5035778;28;20484;-85
2022/04/12 02:55:38;;;;;;;3.28;2.08;;;14.40;74.00;;;;;;5035657;28;20047;-85
2022/04/12 02:58:04;;;;;;;4.53;2.25;;;14.40;74.00;;;;;;5035853;28;20452;-84
2022/04/12 03:00:30;;;;;;;4.30;1.90;;;14.30;73.90;;;;;;5049856;28;20052;-85
2022/04/12 03:02:56;;;;;;;2.15;1.25;;;14.30;73.80;;;;;;5041743;28;20091;-85
2022/04/12 03:05:21;;;;;;;5.85;2.00;;;14.30;73.60;;;;;;5035703;28;20025;-85
2022/04/12 03:07:47;;;;;;;4.82;1.60;;;14.40;73.20;;;;;;5035468;28;20028;-85
2022/04/12 03:10:13;;;;;;;8.32;2.20;;;14.40;72.70;;;;;;5035368;28;20502;-85
2022/04/12 03:12:38;;;;;;;5.93;1.85;;;14.40;73.20;;;;;;5035787;28;20507;-85
2022/04/12 03:15:06;;;;;;;5.55;1.60;;;14.50;72.70;;;;;;5035497;28;20034;-85
2022/04/12 03:17:31;;;;;;;4.38;1.88;;;14.50;72.50;;;;;;5035635;28;20029;-86
2022/04/12 03:19:57;;;;;;;3.47;1.88;;;14.60;72.50;;;;;;5035488;28;20033;-85
2022/04/12 03:22:22;;;;;;;2.53;1.70;;;14.50;72.60;;;;;;5035393;28;20087;-86
2022/04/12 03:24:48;;;;;;;6.88;1.83;;;14.60;72.60;;;;;;5034877;28;20029;-84
2022/04/12 03:27:14;;;;;;;9.23;2.22;;;14.60;72.40;;;;;;5054575;28;20029;-85
2022/04/12 03:29:39;;;;;;;4.13;1.77;;;14.60;72.70;;;;;;5055207;28;20107;-84
2022/04/12 03:32:05;;;;;;;4.75;2.40;;;14.50;73.50;;;;;;5051731;28;20025;-85
2022/04/12 03:34:31;;;;;;;9.05;2.45;;;14.50;73.30;;;;;;5034981;28;20156;-85
2022/04/12 03:36:58;;;;;;;7.13;2.08;;;14.50;73.90;;;;;;5035303;28;20029;-84
2022/04/12 03:39:25;;;;;;;5.18;1.90;;;14.50;74.10;;;;;;5035358;28;20025;-85
2022/04/12 03:41:52;;;;;;;5.93;2.20;;;14.40;74.60;;;;;;5033673;28;20500;-85
2022/04/12 03:44:18;;;;;;;5.85;1.85;;;14.40;75.10;;;;;;5034904;28;20048;-85
2022/04/12 03:46:44;;;;;;;4.07;1.90;;;14.30;75.60;;;;;;5042025;28;20032;-85
2022/04/12 03:49:10;;;;;;;5.78;1.75;;;14.30;76.20;;;;;;5055187;28;20036;-85
2022/04/12 03:51:36;;;;;;;7.32;2.50;;;14.20;76.50;;;;;;5051374;28;20451;-85
2022/04/12 03:54:04;;;;;;;6.43;1.95;;;14.30;76.70;;;;;;5035071;28;20037;-85
2022/04/12 03:56:30;;;;;;;5.65;1.85;;;14.20;76.80;;;;;;5034901;28;20029;-84
2022/04/12 03:58:58;;;;;;;6.50;2.20;;;14.20;76.70;;;;;;5049912;28;20032;-84
2022/04/12 04:01:28;;;;;;;7.93;2.15;;;14.10;77.30;;;;;;5053502;28;20036;-84
2022/04/12 04:03:56;;;;;;;;;;;14.10;78.20;;;;;;5055355;28;20021;-84
2022/04/12 04:06:22;;;;;;;7.95;2.70;;;14.10;78.50;;;;;;5053513;28;19953;-82
2022/04/12 04:08:48;;;;;;;7.55;2.60;;;14.00;81.50;;;;;;5045512;28;20037;-83
2022/04/12 04:11:14;;;;;;;4.45;2.35;;;13.90;79.90;;;;;;5053470;28;20510;-87
2022/04/12 04:13:40;;;;;;;8.00;2.53;;;13.90;79.80;;;;;;5055064;28;20480;-81
2022/04/12 04:16:06;;;;;;;3.85;2.70;;;14.10;79.80;;;;;;5054640;28;20423;-83
2022/04/12 04:18:32;;;;;;;5.50;2.30;;;14.10;78.60;;;;;;5052993;28;20089;-85
2022/04/12 04:20:58;;;;;;;3.80;2.45;;;14.10;78.60;;;;;;5040253;28;20574;-87
2022/04/12 04:23:24;;;;;;;5.05;2.10;;;14.10;78.80;;;;;;5053507;28;20056;-86
2022/04/12 04:25:50;;;;;;;9.32;2.70;;;14.10;78.60;;;;;;5055127;28;20029;-87
2022/04/12 04:28:21;;;;;;;7.80;2.78;;;14.10;78.70;;;;;;5053697;28;20044;-88
2022/04/12 04:30:49;;;;;;;6.82;2.58;;;14.10;78.50;;;;;;5054973;28;20036;-88
2022/04/12 04:33:18;;;;;;;5.75;2.50;;;14.00;78.70;;;;;;5054885;28;20029;-88
2022/04/12 04:35:47;;;;;;;5.45;2.55;;;14.00;78.70;;;;;;5050370;28;20088;-88
2022/04/12 04:38:14;;;;;;;3.72;2.00;;;14.00;79.00;;;;;;5033400;28;20021;-88
2022/04/12 04:40:40;;;;;;;5.82;2.28;;;13.90;78.80;;;;;;5034958;28;20111;-88
2022/04/12 04:43:07;;;;;;;5.15;2.35;;;13.70;80.40;;;;;;5036203;28;20030;-88
2022/04/12 04:45:34;;;;;;;5.05;1.73;;;13.50;81.10;;;;;;5037110;28;20036;-88
2022/04/12 04:48:02;;;;;;;5.60;2.63;;;13.50;81.20;;;;;;5042124;28;20052;-88
2022/04/12 04:50:30;;;;;;;5.43;2.05;;;13.40;81.20;;;;;;5044739;28;20056;-89
2022/04/12 04:52:57;;;;;;;6.45;2.35;;;13.40;80.70;;;;;;5035800;28;20064;-88
2022/04/12 04:55:23;;;;;;;7.35;2.75;;;13.30;81.30;;;;;;5037050;28;20032;-88
2022/04/12 04:57:52;;;;;;;8.48;1.88;;;13.30;81.40;;;;;;5037727;28;20029;-88
2022/04/12 05:00:18;;;;;;;5.63;2.58;;;13.20;81.20;;;;;;5050602;28;20051;-88
2022/04/12 05:02:49;;;;;;;6.40;2.20;;;13.20;81.50;;;;;;5054597;28;20034;-88
2022/04/12 05:05:16;;;;;;;3.72;2.40;;;13.20;81.60;;;;;;5048816;28;20025;-87
2022/04/12 05:07:45;;;;;;;4.63;2.03;;;13.30;81.30;;;;;;5047865;28;20523;-86
2022/04/12 05:10:18;;;;;;;5.50;2.05;;;13.30;81.40;;;;;;5037827;28;20029;-85
2022/04/12 05:12:44;;;;;;;6.00;3.50;;;13.20;81.10;;;;;;5046160;28;20598;-89
2022/04/12 05:15:11;;;;;;;6.25;3.15;;;13.20;81.60;;;;;;5044752;28;20172;-84
2022/04/12 05:17:36;;;;;;;3.38;1.95;;;13.20;81.60;;;;;;5038208;28;20064;-82
2022/04/12 05:20:06;;;;;;;4.25;2.38;;;13.10;81.80;;;;;;5044204;28;20029;-83
2022/04/12 05:22:31;;;;;;;6.13;1.80;;;13.20;81.60;;;;;;5058162;28;20021;-82
2022/04/12 05:24:57;;;;;;;3.67;2.83;;;13.20;81.50;;;;;;5039111;28;20087;-84
2022/04/12 05:27:23;;;;;;;4.72;2.58;;;13.20;81.50;;;;;;5037645;28;20377;-81
2022/04/12 05:29:49;;;;;;;4.10;2.17;;;13.10;81.50;;;;;;5037634;28;20025;-80
2022/04/12 05:32:15;;;;;;;4.50;2.13;;;13.20;81.30;;;;;;5037701;28;20527;-78
2022/04/12 05:34:43;;;;;;;5.45;2.40;;;13.10;81.50;;;;;;5037130;28;20046;-79
2022/04/12 05:37:09;;;;;;;8.23;2.75;;;13.10;81.40;;;;;;5035347;28;20439;-78
2022/04/12 05:43:06;;;;;;;8.45;3.00;;;13.10;81.50;;;;;;5092367;28;20398;-77
2022/04/12 05:45:32;;;;;;;6.68;2.78;;;12.90;81.80;;;;;;5092832;28;20024;-76
2022/04/12 05:47:57;;;;;;;5.60;2.47;;;12.80;82.20;;;;;;5092474;28;20024;-76
2022/04/12 05:50:25;;;;;;;3.58;2.00;;;12.70;82.30;;;;;;5091500;28;20020;-78
2022/04/12 05:52:51;;;;;;;8.77;2.95;;;12.80;81.90;;;;;;5092732;28;20102;-77
2022/04/12 05:55:18;;;;;;;5.18;2.42;;;12.90;81.80;;;;;;5091281;28;20020;-77
2022/04/12 05:57:48;;;;;;;4.60;2.10;;;12.90;81.80;;;;;;5064173;28;20021;-78
2022/04/12 06:00:14;;;;;;;5.55;2.28;;;12.80;81.80;;;;;;5084439;28;20391;-77
2022/04/12 06:02:40;;;;;;;6.45;2.90;;;12.90;81.50;;;;;;5086549;28;20092;-78
2022/04/12 06:05:06;;;;;;;6.72;3.17;;;12.90;81.60;;;;;;5070185;28;20415;-78
2022/04/12 06:07:32;;;;;;;6.97;2.92;;;12.90;81.50;;;;;;5072580;28;20051;-81
2022/04/12 06:09:59;;;;;;;4.93;2.85;;;13.00;81.60;;;;;;5085591;28;20043;-79
2022/04/12 06:12:25;;;;;;;7.25;2.90;;;12.90;81.30;;;;;;5087729;28;20024;-79
2022/04/12 06:14:51;;;;;;;9.48;2.70;;;13.00;81.20;;;;;;5089621;28;20027;-80
2022/04/12 06:17:17;;;;;;;5.53;2.38;;;13.00;81.10;;;;;;5084625;28;20230;-80
2022/04/12 06:19:43;;;;;;;4.80;2.47;;;13.10;81.10;;;;;;5090257;28;20111;-79
2022/04/12 06:22:08;;;;;;;4.68;2.20;;;13.00;80.70;;;;;;5090200;28;20032;-82
2022/04/12 06:24:34;;;;;;;8.73;3.05;;;12.90;81.10;;;;;;5079123;28;20047;-80
2022/04/12 06:26:59;;;;;;;5.75;2.47;;;12.90;81.30;;;;;;5088950;28;20029;-79
2022/04/12 06:29:25;;;;;;;5.30;2.15;;;13.00;81.50;;;;;;5088691;28;20063;-79
2022/04/12 06:31:51;;;;;;;8.20;2.88;;;13.00;81.30;;;;;;5087183;28;20395;-78
2022/04/12 06:34:17;;;;;;;8.10;2.40;;;13.10;81.20;;;;;;5080122;28;20035;-79
2022/04/12 06:36:42;;;;;;;7.55;3.45;;;13.20;80.70;;;;;;5090289;28;20028;-78
2022/04/12 06:39:08;;;;;;;3.22;1.70;;;13.20;80.80;;;;;;5088734;28;20032;-78
2022/04/12 06:41:33;;;;;;;5.32;2.40;;;13.30;80.20;;;;;;5090350;28;20504;-80
2022/04/12 06:43:59;;;;;;;7.82;2.92;;;13.60;80.30;;;;;;5089892;28;20577;-80
2022/04/12 06:46:25;;;;;;;5.95;2.53;;;13.70;80.30;;;;;;5090834;28;20024;-80
2022/04/12 06:48:50;;;;;;;4.10;2.40;;;13.80;79.80;;;;;;5080756;28;20514;-79
2022/04/12 06:51:16;;;;;;;6.95;3.05;;;13.70;78.80;;;;;;5090816;28;20031;-78
2022/04/12 06:53:42;;;;;;;7.60;2.75;;;13.70;79.30;;;;;;5070020;28;20658;-79
2022/04/12 06:56:07;;;;;;;7.28;2.63;;;13.50;80.00;;;;;;5064351;28;20032;-79
2022/04/12 06:58:33;;;;;;;9.00;2.55;;;13.60;79.80;;;;;;5072460;28;20021;-79
2022/04/12 07:00:59;;;;;;;4.82;2.75;;;13.60;79.40;;;;;;5071833;28;20040;-78
2022/04/12 07:03:24;;;;;;;5.43;2.85;;;13.80;79.40;;;;;;5065096;28;20021;-79
2022/04/12 07:05:55;;;;;;;11.90;2.60;;;13.80;79.10;;;;;;5076167;28;20031;-79
2022/04/12 07:08:24;;;;;;;5.15;2.30;;;13.80;79.00;;;;;;5074402;28;20013;-79
2022/04/12 07:10:50;;;;;;;3.88;2.35;;;13.80;79.00;;;;;;5075807;28;20029;-79
2022/04/12 07:13:16;;;;;;;9.45;2.78;;;13.80;78.90;;;;;;5076992;28;20656;-79
2022/04/12 07:15:43;;;;;;;5.97;2.42;;;13.80;78.80;;;;;;5074574;28;20020;-79
2022/04/12 07:18:10;;;;;;;5.05;2.58;;;13.70;78.80;;;;;;5076310;28;20710;-78
2022/04/12 07:20:35;;;;;;;8.05;2.35;;;13.70;79.40;;;;;;5076864;28;20024;-79
2022/04/12 07:23:01;;;;;;;5.68;3.03;;;13.70;79.70;;;;;;5071124;28;20028;-78
2022/04/12 07:25:27;;;;;;;4.03;2.40;;;13.70;79.90;;;;;;5067061;28;20031;-79
2022/04/12 07:27:53;;;;;;;9.15;2.60;;;13.70;79.80;;;;;;5067252;28;20154;-78
2022/04/12 07:30:19;;;;;;;7.35;2.90;;;13.70;79.30;;;;;;5067878;28;20040;-80
2022/04/12 07:32:45;;;;;;;10.93;3.30;;;13.70;79.90;;;;;;5075247;28;20035;-80
2022/04/12 07:35:10;;;;;;;6.38;3.05;;;13.60;79.80;;;;;;5076448;28;20099;-81
2022/04/12 07:37:36;;;;;;;6.68;3.30;;;13.70;80.10;;;;;;5074347;28;20024;-81
2022/04/12 07:40:04;;;;;;;5.93;2.55;;;13.70;80.10;;;;;;5076274;28;20158;-81
2022/04/12 07:42:29;;;;;;;8.65;2.85;;;13.70;79.70;;;;;;5074593;28;20041;-81
2022/04/12 07:44:55;;;;;;;3.85;2.20;;;13.70;79.80;;;;;;5066335;28;20033;-81
2022/04/12 07:47:21;;;;;;;6.05;2.97;;;13.70;79.30;;;;;;5076538;28;20498;-81
2022/04/12 07:49:46;;;;;;;6.22;2.35;;;13.60;80.10;;;;;;5075173;28;20033;-82
2022/04/12 07:52:12;;;;;;;4.32;2.40;;;13.50;80.40;;;;;;5076248;28;20022;-81
2022/04/12 07:54:38;;;;;;;7.30;2.47;;;13.50;80.00;;;;;;5075832;28;20469;-81
2022/04/12 07:57:04;;;;;;;6.50;2.85;;;13.60;80.00;;;;;;5073394;28;20033;-81
2022/04/12 07:59:29;;;;;;;6.07;3.05;;;13.80;80.20;;;;;;5075809;28;20094;-81
2022/04/12 08:01:55;;;;;;;6.43;2.65;;;13.90;79.90;;;;;;5074581;28;20021;-81
2022/04/12 08:04:21;;;;;;;9.57;2.97;;;13.90;79.60;;;;;;5075050;28;20020;-81
2022/04/12 08:06:46;;;;;;;6.10;2.17;;;13.90;79.60;;;;;;5074677;28;20021;-81
2022/04/12 08:09:12;;;;;;;10.80;3.17;;;13.90;79.10;;;;;;5075755;28;20029;-81
2022/04/12 08:11:37;;;;;;;6.28;2.65;;;13.90;79.70;;;;;;5074233;28;20461;-81
2022/04/12 08:14:03;;;;;;;7.90;2.83;;;13.90;79.90;;;;;;5066140;28;20028;-81
2022/04/12 08:16:29;;;;;;;8.45;2.38;;;13.90;79.60;;;;;;5073459;28;20028;-81
2022/04/12 08:18:55;;;;;;;8.70;2.35;;;13.90;79.90;;;;;;5075871;28;20465;-81
2022/04/12 08:21:40;;;;;;;3.67;2.42;;;14.00;79.80;;;;;;5075550;28;20028;-81
2022/04/12 08:24:07;;;;;;;5.57;2.65;;;14.00;79.60;;;;;;5074042;28;20043;-81
2022/04/12 08:26:33;;;;;;;6.15;2.22;;;14.00;79.90;;;;;;5075414;28;20021;-81
2022/04/12 08:28:58;;;;;;;8.13;2.63;;;13.90;79.70;;;;;;5072018;28;20039;-80
2022/04/12 08:31:24;;;;;;;7.75;2.72;;;13.80;80.00;;;;;;5071160;28;20055;-80
2022/04/12 08:33:51;;;;;;;10.30;2.92;;;13.80;80.00;;;;;;5070850;28;20028;-80
2022/04/12 08:36:20;;;;;;;4.05;2.60;;;13.70;80.50;;;;;;5066345;28;20024;-81
2022/04/12 08:38:46;;;;;;;6.20;2.20;;;13.70;81.00;;;;;;5075262;28;20052;-81
2022/04/12 08:41:14;;;;;;;9.70;3.10;;;13.70;80.60;;;;;;5063200;28;20062;-80
2022/04/12 08:43:40;;;;;;;5.10;2.30;;;13.80;80.70;;;;;;5050094;28;20021;-81
2022/04/12 08:46:07;;;;;;;8.05;3.33;;;13.80;80.50;;;;;;5067644;28;20064;-81
2022/04/12 08:48:34;;;;;;;9.48;2.72;;;13.90;80.40;;;;;;5074868;28;20044;-81
2022/04/12 08:51:01;;;;;;;10.15;3.67;;;13.80;80.20;;;;;;5073385;28;20025;-81
2022/04/12 08:53:28;;;;;;;10.05;2.70;;;13.90;80.70;;;;;;5063884;28;20115;-81
2022/04/12 08:55:55;;;;;;;7.53;2.38;;;14.00;80.20;;;;;;5071843;28;20024;-81
2022/04/12 08:58:21;;;;;;;7.55;3.67;;;14.10;79.50;;;;;;5074802;28;20024;-80
2022/04/12 09:00:47;;;;;;;11.02;3.33;;;14.10;80.00;;;;;;5072532;28;20048;-80
2022/04/12 09:03:16;;;;;;;9.43;3.05;;;14.20;80.10;;;;;;5065199;28;20029;-81
2022/04/12 09:05:42;;;;;;;9.20;2.97;;;14.30;79.70;;;;;;5074953;28;20099;-81
2022/04/12 09:08:28;;;;;;;7.43;3.20;;;14.40;78.90;;;;;;5070662;28;20037;-81
2022/04/12 09:11:05;;;;;;;6.63;3.10;;;14.40;79.00;;;;;;5058756;28;20029;-85
2022/04/12 09:13:32;;;;;;;9.45;3.33;;;14.40;79.10;;;;;;5067280;28;20028;-83
2022/04/12 09:15:58;;;;;;;7.18;2.55;;;14.50;78.90;;;;;;5058529;28;20033;-83
2022/04/12 09:18:42;;;;;;;5.68;2.92;;;14.40;78.60;;;;;;5060757;28;20051;-83
2022/04/12 09:21:13;;;;;;;17.13;3.70;;;14.30;79.20;;;;;;5044384;28;20044;-82
2022/04/12 09:23:49;;;;;;;15.63;4.75;;;14.30;79.70;;;;;;5067813;28;20040;-82
2022/04/12 09:26:23;;;;;;;6.15;2.95;;;14.40;79.30;;;;;;5061686;28;20017;-82
2022/04/12 09:28:50;;;;;;;10.02;3.30;;;14.40;79.20;;;;;;5067279;28;20051;-82
2022/04/12 09:31:17;;;;;;;6.50;2.22;;;14.50;79.20;;;;;;5063213;28;20375;-82
2022/04/12 09:33:44;;;;;;;6.40;2.47;;;14.50;79.00;;;;;;5065684;28;20037;-82
2022/04/12 09:36:11;;;;;;;7.68;3.13;;;14.40;79.30;;;;;;5069810;28;20082;-83
2022/04/12 09:38:39;;;;;;;7.72;2.90;;;14.50;79.80;;;;;;5075406;28;20132;-86
2022/04/12 09:41:11;;;;;;;7.65;2.47;;;14.50;79.90;;;;;;5055075;28;20045;-85
2022/04/12 09:43:49;;;;;;;7.88;2.78;;;14.50;79.80;;;;;;5037960;28;20044;-82
2022/04/12 09:46:16;;;;;;;9.82;2.83;;;14.30;80.30;;;;;;5062216;28;20013;-82
2022/04/12 09:48:48;;;;;;;5.20;2.45;;;14.30;80.50;;;;;;5074745;28;20021;-82
2022/04/12 09:51:15;;;;;;;7.00;2.53;;;14.30;80.60;;;;;;5075057;28;20020;-82
2022/04/12 09:53:45;;;;;;;9.38;2.75;;;14.20;81.00;;;;;;5065285;28;20092;-83
2022/04/12 09:56:15;;;;;;;6.35;2.53;;;14.30;81.00;;;;;;5064339;28;20032;-82
2022/04/12 09:58:42;;;;;;;12.73;3.10;;;14.30;81.60;;;;;;5046878;28;20064;-83
2022/04/12 10:01:09;;;;;;;14.15;3.33;;;14.30;81.60;;;;;;5065639;28;20107;-83
2022/04/12 10:03:36;;;;;;;11.27;3.40;;;14.40;81.60;;;;;;5063019;28;21575;-83
2022/04/12 10:06:03;;;;;;;7.93;3.05;;;14.50;81.70;;;;;;5061850;28;20021;-82
2022/04/12 10:08:33;;;;;;;6.07;2.55;;;14.50;81.40;;;;;;5064144;28;20376;-83
2022/04/12 10:10:59;;;;;;;;;;;14.50;81.30;;;;;;5065092;28;20084;-82
2022/04/12 10:13:29;;;;;;;8.95;3.13;;;14.50;81.50;;;;;;5063737;28;20449;-83
2022/04/12 10:15:55;;;;;;;10.10;3.13;;;14.60;81.80;;;;;;5045002;28;20090;-82
2022/04/12 10:18:21;;;;;;;8.73;3.17;;;14.50;81.90;;;;;;5063044;28;20020;-84
2022/04/12 10:20:47;;;;;;;6.85;3.70;;;14.50;81.90;;;;;;5064122;28;20028;-81
2022/04/12 10:23:16;;;;;;;4.47;2.88;;;14.30;82.50;;;;;;5046629;28;20025;-82
2022/04/12 10:25:43;;;;;;;7.97;3.33;;;14.30;82.90;;;;;;5048146;28;20028;-87
2022/04/12 10:28:10;;;;;;;7.32;3.25;;;14.30;82.80;;;;;;5068140;28;20033;-85
2022/04/12 10:30:35;;;;;;;6.57;2.83;;;14.30;82.90;;;;;;5068102;28;20107;-85
2022/04/12 10:33:20;;;;;;;10.70;3.47;;;14.30;82.90;;;;;;5076539;28;20055;-86
2022/04/12 10:35:46;;;;;;;7.65;3.60;;;14.40;82.80;;;;;;5069768;28;20028;-86
2022/04/12 10:38:17;;;;;;;7.80;3.60;;;14.60;82.40;;;;;;5078029;28;20024;-86
2022/04/12 10:40:49;;;;;;;;;;;14.60;82.40;;;;;;5058658;28;20111;-86
2022/04/12 10:43:21;;;;;;;6.93;2.63;;;14.60;82.20;;;;;;5060320;28;19920;-85
2022/04/12 10:45:49;;;;;;;9.88;3.20;;;14.70;81.70;;;;;;5057052;28;20024;-85
2022/04/12 10:48:20;;;;;;;7.80;3.30;;;14.60;81.90;;;;;;5070987;28;20066;-85
2022/04/12 10:50:46;;;;;;;8.13;2.70;;;14.50;82.20;;;;;;5056033;28;20120;-86
2022/04/12 10:53:12;;;;;;;5.57;3.20;;;14.40;82.50;;;;;;5058176;28;20051;-86
2022/04/12 10:55:41;;;;;;;8.00;2.80;;;14.40;82.80;;;;;;5056954;28;20041;-86
2022/04/12 10:58:31;;;;;;;7.25;2.80;;;14.50;82.50;;;;;;5058360;28;20082;-85
2022/04/12 11:00:57;;;;;;;8.05;3.03;;;14.50;82.30;;;;;;5058654;28;20060;-86
2022/04/12 11:03:41;;;;;;;6.30;2.45;;;14.60;82.00;;;;;;5058142;28;20021;-86
2022/04/12 11:06:11;;;;;;;5.18;2.33;;;14.60;81.90;;;;;;5040218;28;20031;-86
2022/04/12 11:08:36;;;;;;;9.13;3.20;;;14.50;81.60;;;;;;5058105;28;20067;-86
2022/04/12 11:11:04;;;;;;;7.50;2.90;;;14.50;82.30;;;;;;5076289;28;20033;-86
2022/04/12 11:13:32;;;;;;;7.85;2.92;;;14.50;82.20;;;;;;5059864;28;20032;-86
2022/04/12 11:16:09;;;;;;;8.25;3.10;;;14.60;82.20;;;;;;5071989;28;20475;-86
2022/04/12 11:18:51;;;;;;;8.27;3.10;;;14.60;81.80;;;;;;5057923;28;20021;-87
2022/04/12 11:21:21;;;;;;;4.20;2.65;;;14.60;81.50;;;;;;5057841;28;20037;-87
2022/04/12 11:23:57;;;;;;;4.50;2.95;;;14.70;81.60;;;;;;5057806;28;20553;-86
2022/04/12 11:26:50;;;;;;;5.15;2.47;;;14.70;81.60;;;;;;5057915;28;20025;-85
2022/04/12 11:29:18;;;;;;;5.47;2.53;;;14.80;81.40;;;;;;5071760;28;20059;-86
2022/04/12 11:31:50;;;;;;;5.22;2.40;;;14.80;81.40;;;;;;5077811;28;20031;-87
2022/04/12 11:34:17;;;;;;;4.93;2.78;;;14.80;81.50;;;;;;5073109;28;20025;-85
2022/04/12 11:36:50;;;;;;;6.22;2.60;;;14.60;81.80;;;;;;5057706;28;20021;-86
2022/04/12 11:39:21;;;;;;;6.43;2.65;;;14.60;81.50;;;;;;5039882;28;20096;-86
2022/04/12 11:41:47;;;;;;;6.80;2.50;;;14.80;81.70;;;;;;5062141;28;20063;-87
2022/04/12 11:44:13;;;;;;;6.57;2.67;;;14.70;81.50;;;;;;5059308;28;20021;-87
2022/04/12 11:46:39;;;;;;;8.00;2.88;;;14.80;81.50;;;;;;5077328;28;20081;-86
2022/04/12 11:49:11;;;;;;;6.55;3.15;;;14.80;81.30;;;;;;5076113;28;20036;-86
2022/04/12 11:51:41;;;;;;;10.95;3.22;;;15.00;81.00;;;;;;5077438;28;20017;-86
2022/04/12 11:54:26;;;;;;;7.43;2.53;;;15.20;80.80;;;;;;5077244;28;20051;-87
2022/04/12 11:56:58;;;;;;;9.05;2.38;;;15.10;80.60;;;;;;5077357;28;20510;-86
2022/04/12 11:59:24;;;;;;;6.22;2.25;;;15.00;80.50;;;;;;5081375;28;20085;-87
2022/04/12 12:01:49;;;;;;;6.47;2.97;;;14.90;80.90;;;;;;5075697;28;20032;-86
2022/04/12 12:04:15;;;;;;;6.25;2.72;;;14.80;81.60;;;;;;5057081;28;20032;-87
2022/04/12 12:07:01;;;;;;;5.75;2.20;;;14.70;81.90;;;;;;5057214;28;20025;-87
2022/04/12 12:09:27;;;;;;;6.97;2.92;;;14.60;81.70;;;;;;5056844;28;20033;-86
2022/04/12 12:11:57;;;;;;;4.72;2.40;;;14.70;81.90;;;;;;5068356;28;20086;-86
2022/04/12 12:14:23;;;;;;;7.45;2.60;;;14.70;81.40;;;;;;5076736;28;20564;-86
2022/04/12 12:17:03;;;;;;;7.60;2.92;;;14.70;81.80;;;;;;5073498;28;20025;-83
2022/04/12 12:19:29;;;;;;;;;;;15.00;81.30;;;;;;5051655;28;20032;-84
2022/04/12 12:21:56;;;;;;;5.97;2.85;;;15.10;80.60;;;;;;5053074;28;19922;-84
2022/04/12 12:24:21;;;;;;;7.53;2.67;;;15.20;80.50;;;;;;5038599;28;20513;-84
2022/04/12 12:26:54;;;;;;;8.25;2.80;;;15.30;80.00;;;;;;5066893;28;20036;-84
2022/04/12 12:29:21;;;;;;;7.93;2.28;;;15.20;80.30;;;;;;5086477;28;20085;-84
2022/04/12 12:31:47;;;;;;;3.80;2.10;;;15.20;79.20;;;;;;5064256;28;20037;-84
2022/04/12 12:34:29;;;;;;;9.15;2.67;;;15.20;80.40;;;;;;5056379;28;20021;-84
2022/04/12 12:36:55;;;;;;;5.38;2.72;;;15.20;80.30;;;;;;5040446;28;20037;-84
2022/04/12 12:39:21;;;;;;;8.65;2.75;;;15.30;80.10;;;;;;5058437;28;20410;-84
2022/04/12 12:41:47;;;;;;;7.07;3.05;;;15.30;79.90;;;;;;5071102;28;20407;-83
2022/04/12 12:44:13;;;;;;;5.88;2.72;;;15.30;79.60;;;;;;5055850;28;20099;-83
2022/04/12 12:46:39;;;;;;;3.83;2.10;;;15.30;79.90;;;;;;5056244;28;20033;-83
2022/04/12 12:49:12;;;;;;;6.40;2.85;;;15.30;79.60;;;;;;5056127;28;20439;-84
2022/04/12 12:51:38;;;;;;;5.15;2.50;;;15.20;80.60;;;;;;5055729;28;20029;-83
2022/04/12 12:54:05;;;;;;;4.95;2.58;;;15.20;80.30;;;;;;5056371;28;20123;-84
2022/04/12 12:56:35;;;;;;;5.10;2.03;;;15.20;80.50;;;;;;5057286;28;20035;-84